createdAt,value
2023-05-10T00:02:06.388Z,13.50
2023-05-10T00:04:33.819Z,13.60
2023-05-10T00:07:00.855Z,13.50
2023-05-10T00:09:27.984Z,13.60
2023-05-10T00:11:55.013Z,13.70
2023-05-10T00:14:22.572Z,13.70
2023-05-10T00:16:49.914Z,13.70
2023-05-10T00:19:17.445Z,13.50
2023-05-10T00:21:45.293Z,13.50
2023-05-10T00:24:20.298Z,13.80
2023-05-10T00:26:47.608Z,13.70
2023-05-10T00:29:14.848Z,13.60
2023-05-10T00:31:42.175Z,13.70
2023-05-10T00:34:09.635Z,13.60
2023-05-10T00:36:37.005Z,13.40
2023-05-10T00:39:04.761Z,13.50
2023-05-10T00:41:34.705Z,13.30
2023-05-10T00:44:03.238Z,13.20
2023-05-10T00:46:30.907Z,13.30
2023-05-10T00:48:58.478Z,13.10
2023-05-10T00:51:26.459Z,13.40
2023-05-10T00:53:54.073Z,13.50
2023-05-10T00:56:24.248Z,13.20
2023-05-10T00:58:52.199Z,13.50
2023-05-10T01:01:20.311Z,13.30
2023-05-10T01:03:48.379Z,13.40
2023-05-10T01:06:15.392Z,13.00
2023-05-10T01:08:43.316Z,13.20
2023-05-10T01:11:11.333Z,13.00
2023-05-10T01:13:43.621Z,13.30
2023-05-10T01:16:11.047Z,13.30
2023-05-10T01:18:44.544Z,13.20
2023-05-10T01:21:14.654Z,13.30
2023-05-10T01:24:10.763Z,13.30
2023-05-10T01:26:48.976Z,13.30
2023-05-10T01:30:05.112Z,13.20
2023-05-10T01:32:47.928Z,13.30
2023-05-10T01:35:28.171Z,13.00
2023-05-10T01:38:07.103Z,13.30
2023-05-10T01:40:42.238Z,13.40
2023-05-10T01:43:18.168Z,13.30
2023-05-10T01:46:12.226Z,13.20
2023-05-10T01:48:48.130Z,13.30
2023-05-10T01:51:24.286Z,13.30
2023-05-10T01:53:59.188Z,13.40
2023-05-10T01:56:28.069Z,13.20
2023-05-10T01:58:56.596Z,13.30
2023-05-10T02:01:25.720Z,13.40
2023-05-10T02:03:54.932Z,13.40
2023-05-10T02:06:23.308Z,13.30
2023-05-10T02:08:52.760Z,13.50
2023-05-10T02:11:22.076Z,13.50
2023-05-10T02:13:51.709Z,13.60
2023-05-10T02:16:20.859Z,13.50
2023-05-10T02:18:49.204Z,13.50
2023-05-10T02:21:18.126Z,13.60
2023-05-10T02:23:46.295Z,13.30
2023-05-10T02:26:15.419Z,13.30
2023-05-10T02:28:44.476Z,13.30
2023-05-10T02:31:15.233Z,13.10
2023-05-10T02:33:44.137Z,13.40
2023-05-10T02:36:12.228Z,13.10
2023-05-10T02:38:40.175Z,13.10
2023-05-10T02:41:10.081Z,13.30
2023-05-10T02:43:39.178Z,12.90
2023-05-10T02:46:06.677Z,13.10
2023-05-10T02:48:34.142Z,13.10
2023-05-10T02:51:08.193Z,13.10
2023-05-10T02:53:39.767Z,13.20
2023-05-10T02:56:29.610Z,13.30
2023-05-10T02:58:57.390Z,13.40
2023-05-10T03:01:25.016Z,13.20
2023-05-10T03:03:52.777Z,13.30
2023-05-10T03:06:19.953Z,13.30
2023-05-10T03:08:47.590Z,13.10
2023-05-10T03:11:30.228Z,13.40
2023-05-10T03:14:18.764Z,13.30
2023-05-10T03:17:05.397Z,13.20
2023-05-10T03:19:46.796Z,13.00
2023-05-10T03:22:19.807Z,13.20
2023-05-10T03:24:48.777Z,13.30
2023-05-10T03:27:16.687Z,13.50
2023-05-10T03:29:49.026Z,13.20
2023-05-10T03:32:16.469Z,13.20
2023-05-10T03:34:46.786Z,13.60
2023-05-10T03:37:16.992Z,13.20
2023-05-10T03:39:44.481Z,13.20
2023-05-10T03:42:13.163Z,13.40
2023-05-10T03:44:41.447Z,13.20
2023-05-10T03:47:09.065Z,13.20
2023-05-10T03:49:36.350Z,13.30
2023-05-10T03:52:03.687Z,13.40
2023-05-10T03:54:31.088Z,13.30
2023-05-10T03:56:58.421Z,13.00
2023-05-10T03:59:25.768Z,13.40
2023-05-10T04:01:52.971Z,13.20
2023-05-10T04:04:21.954Z,13.30
2023-05-10T04:06:49.282Z,13.20
2023-05-10T04:09:17.729Z,13.20
2023-05-10T04:11:45.018Z,13.50
2023-05-10T04:14:12.790Z,13.40
2023-05-10T04:16:40.331Z,13.20
2023-05-10T04:19:07.662Z,13.30
2023-05-10T04:21:35.039Z,13.30
2023-05-10T04:24:02.850Z,13.50
2023-05-10T04:26:30.653Z,13.60
2023-05-10T04:28:58.060Z,13.20
2023-05-10T04:31:25.722Z,13.50
2023-05-10T04:33:53.434Z,13.60
2023-05-10T04:36:23.642Z,13.30
2023-05-10T04:38:50.797Z,13.40
2023-05-10T04:41:18.144Z,13.40
2023-05-10T04:43:45.648Z,13.30
2023-05-10T04:46:13.140Z,13.20
2023-05-10T04:48:42.768Z,13.10
2023-05-10T04:51:10.236Z,12.80
2023-05-10T04:53:37.731Z,13.00
2023-05-10T04:56:05.572Z,12.80
2023-05-10T04:58:33.024Z,12.80
2023-05-10T05:01:07.501Z,12.60
2023-05-10T05:03:35.416Z,12.50
2023-05-10T05:06:05.302Z,12.60
2023-05-10T05:08:32.631Z,12.60
2023-05-10T05:11:00.571Z,12.50
2023-05-10T05:13:27.881Z,12.30
2023-05-10T05:15:55.972Z,12.70
2023-05-10T05:18:23.292Z,12.60
2023-05-10T05:20:50.615Z,12.70
2023-05-10T05:23:18.047Z,12.40
2023-05-10T05:25:45.313Z,12.80
2023-05-10T05:28:15.623Z,12.80
2023-05-10T05:30:42.893Z,12.60
2023-05-10T05:33:10.215Z,12.70
2023-05-10T05:35:37.256Z,12.60
2023-05-10T05:38:04.796Z,12.60
2023-05-10T05:40:31.930Z,12.60
2023-05-10T05:42:59.125Z,12.60
2023-05-10T05:45:26.439Z,12.60
2023-05-10T05:47:53.689Z,12.60
2023-05-10T05:50:21.032Z,12.70
2023-05-10T05:52:48.420Z,12.50
2023-05-10T05:55:15.805Z,12.40
2023-05-10T05:57:42.980Z,12.60
2023-05-10T06:00:10.800Z,12.40
2023-05-10T06:02:38.109Z,12.50
2023-05-10T06:05:05.735Z,12.60
2023-05-10T06:07:33.086Z,12.50
2023-05-10T06:10:00.219Z,12.50
2023-05-10T06:12:27.208Z,12.40
2023-05-10T06:14:54.678Z,12.60
2023-05-10T06:17:22.798Z,12.50
2023-05-10T06:19:49.930Z,12.70
2023-05-10T06:22:17.540Z,12.60
2023-05-10T06:24:44.860Z,12.70
2023-05-10T06:27:11.954Z,12.50
2023-05-10T06:29:39.247Z,12.80
2023-05-10T06:32:06.475Z,13.00
2023-05-10T06:34:33.950Z,13.20
2023-05-10T06:37:01.337Z,13.00
2023-05-10T06:39:30.544Z,13.30
2023-05-10T06:41:58.028Z,13.00
2023-05-10T06:44:25.102Z,13.30
2023-05-10T06:46:53.752Z,13.10
2023-05-10T06:49:20.858Z,13.30
2023-05-10T06:51:48.209Z,13.10
2023-05-10T06:54:15.623Z,13.10
2023-05-10T06:56:42.977Z,12.90
2023-05-10T06:59:10.435Z,12.80
2023-05-10T07:01:38.064Z,12.70
2023-05-10T07:04:05.524Z,12.60
2023-05-10T07:06:33.971Z,12.70
2023-05-10T07:09:01.813Z,12.60
2023-05-10T07:11:29.524Z,12.50
2023-05-10T07:13:56.834Z,12.70
2023-05-10T07:16:24.399Z,12.50
2023-05-10T07:18:52.274Z,12.70
2023-05-10T07:21:20.219Z,12.50
2023-05-10T07:23:47.525Z,12.60
2023-05-10T07:26:16.084Z,12.70
2023-05-10T07:28:43.530Z,12.90
2023-05-10T07:31:11.004Z,12.80
2023-05-10T07:33:38.638Z,12.90
2023-05-10T07:36:06.025Z,13.10
2023-05-10T07:38:33.538Z,12.90
2023-05-10T07:41:00.929Z,13.10
2023-05-10T07:43:28.119Z,13.10
2023-05-10T07:45:56.505Z,12.70
2023-05-10T07:48:26.391Z,12.90
2023-05-10T07:50:54.239Z,13.00
2023-05-10T07:53:24.063Z,12.90
2023-05-10T07:55:59.195Z,13.00
2023-05-10T07:58:27.102Z,13.00
2023-05-10T08:00:54.830Z,13.00
2023-05-10T08:03:22.654Z,12.90
2023-05-10T08:05:58.850Z,12.80
2023-05-10T08:08:26.377Z,12.80
2023-05-10T08:10:53.435Z,12.70
2023-05-10T08:13:21.121Z,12.80
2023-05-10T08:15:48.924Z,12.90
2023-05-10T08:18:22.061Z,12.70
2023-05-10T08:20:49.970Z,12.90
2023-05-10T08:23:17.179Z,12.60
2023-05-10T08:25:44.784Z,12.80
2023-05-10T08:28:12.273Z,12.80
2023-05-10T08:30:40.251Z,12.90
2023-05-10T08:33:11.591Z,12.80
2023-05-10T08:35:39.056Z,12.90
2023-05-10T08:38:06.192Z,12.70
2023-05-10T08:40:34.048Z,12.80
2023-05-10T08:43:10.000Z,12.70
2023-05-10T08:45:47.028Z,12.60
2023-05-10T08:48:16.069Z,13.10
2023-05-10T08:50:44.305Z,12.80
2023-05-10T08:53:13.031Z,13.00
2023-05-10T08:55:43.498Z,12.80
2023-05-10T08:58:14.734Z,12.90
2023-05-10T09:00:42.760Z,12.90
2023-05-10T09:03:11.541Z,13.00
2023-05-10T09:05:42.655Z,12.90
2023-05-10T09:08:10.296Z,13.20
2023-05-10T09:10:39.842Z,13.20
2023-05-10T09:13:09.501Z,13.40
2023-05-10T09:15:37.095Z,13.30
2023-05-10T09:18:04.615Z,13.40
2023-05-10T09:20:32.603Z,13.70
2023-05-10T09:23:00.444Z,13.60
2023-05-10T09:25:32.849Z,13.80
2023-05-10T09:28:00.776Z,14.00
2023-05-10T09:30:30.084Z,14.00
2023-05-10T09:32:58.422Z,13.90
2023-05-10T09:35:29.871Z,14.10
2023-05-10T09:38:03.513Z,14.10
2023-05-10T09:40:32.087Z,14.30
2023-05-10T09:43:07.201Z,14.10
2023-05-10T09:45:40.059Z,14.10
2023-05-10T09:48:11.870Z,14.30
2023-05-10T09:50:40.030Z,14.10
2023-05-10T09:53:08.045Z,14.10
2023-05-10T09:55:45.934Z,14.10
2023-05-10T09:58:19.908Z,14.00
2023-05-10T10:00:53.965Z,14.20
2023-05-10T10:03:25.587Z,13.90
2023-05-10T10:05:54.478Z,13.90
2023-05-10T10:08:21.789Z,14.20
2023-05-10T10:10:50.314Z,14.20
2023-05-10T10:13:18.515Z,14.40
2023-05-10T10:15:52.386Z,14.50
2023-05-10T10:18:25.029Z,14.70
2023-05-10T10:20:54.092Z,14.40
2023-05-10T10:23:21.885Z,14.20
2023-05-10T10:25:53.874Z,14.20
2023-05-10T10:28:33.663Z,14.60
2023-05-10T10:31:14.754Z,14.50
2023-05-10T10:34:00.595Z,14.60
2023-05-10T10:36:28.609Z,14.80
2023-05-10T10:39:00.652Z,14.90
2023-05-10T10:41:36.935Z,15.10
2023-05-10T10:44:26.402Z,15.40
2023-05-10T10:47:25.618Z,15.60
2023-05-10T10:49:57.710Z,15.40
2023-05-10T10:52:44.422Z,15.60
2023-05-10T10:55:20.164Z,15.30
2023-05-10T10:58:01.643Z,15.50
2023-05-10T11:00:33.257Z,15.40
2023-05-10T11:03:22.448Z,15.40
2023-05-10T11:05:51.157Z,15.30
2023-05-10T11:08:28.119Z,15.70
2023-05-10T11:11:01.364Z,15.60
2023-05-10T11:13:37.228Z,15.60
2023-05-10T11:16:16.836Z,15.80
2023-05-10T11:18:59.466Z,15.80
2023-05-10T11:21:27.250Z,15.90
2023-05-10T11:23:58.978Z,15.60
2023-05-10T11:26:33.867Z,15.80
2023-05-10T11:29:06.283Z,15.50
2023-05-10T11:31:34.421Z,15.40
2023-05-10T11:34:06.270Z,15.20
2023-05-10T11:36:38.827Z,15.20
2023-05-10T11:39:07.075Z,15.00
2023-05-10T11:41:34.640Z,14.60
2023-05-10T11:44:03.382Z,14.70
2023-05-10T11:46:31.440Z,14.80
2023-05-10T11:49:08.136Z,14.50
2023-05-10T11:51:40.701Z,14.60
2023-05-10T11:54:10.592Z,14.80
2023-05-10T11:56:44.402Z,15.00
2023-05-10T11:59:12.036Z,15.00
2023-05-10T12:01:39.947Z,15.20
2023-05-10T12:04:07.858Z,15.20
2023-05-10T12:06:41.887Z,15.40
2023-05-10T12:09:13.086Z,15.10
2023-05-10T12:11:44.298Z,14.60
2023-05-10T12:14:12.486Z,14.70
2023-05-10T12:16:40.181Z,14.60
2023-05-10T12:19:10.593Z,14.60
2023-05-10T12:21:40.692Z,14.40
2023-05-10T12:24:12.030Z,14.90
2023-05-10T12:26:40.148Z,14.50
2023-05-10T12:29:18.971Z,14.50
2023-05-10T12:31:57.857Z,14.90
2023-05-10T12:34:32.937Z,14.70
2023-05-10T12:37:01.463Z,14.70
2023-05-10T12:39:42.865Z,14.70
2023-05-10T12:42:13.447Z,14.50
2023-05-10T12:44:44.100Z,14.60
2023-05-10T12:47:12.085Z,14.50
2023-05-10T12:49:39.635Z,14.40
2023-05-10T12:52:07.098Z,14.50
2023-05-10T12:54:34.740Z,14.30
2023-05-10T12:57:02.068Z,14.30
2023-05-10T12:59:29.843Z,14.50
2023-05-10T13:01:59.104Z,14.50
2023-05-10T13:04:27.023Z,14.60
2023-05-10T13:06:54.530Z,14.70
2023-05-10T13:09:32.055Z,14.70
2023-05-10T13:12:00.111Z,14.80
2023-05-10T13:14:34.870Z,15.20
2023-05-10T13:17:03.417Z,15.40
2023-05-10T13:19:31.594Z,15.50
2023-05-10T13:22:02.147Z,16.30
2023-05-10T13:24:32.936Z,16.40
2023-05-10T13:27:00.290Z,16.70
2023-05-10T13:29:29.832Z,17.10
2023-05-10T13:31:57.639Z,17.30
2023-05-10T13:34:25.470Z,17.30
2023-05-10T13:36:54.150Z,17.00
2023-05-10T13:39:24.921Z,16.70
2023-05-10T13:41:53.893Z,16.50
2023-05-10T13:44:22.081Z,16.20
2023-05-10T13:46:53.279Z,15.80
2023-05-10T13:49:22.698Z,15.40
2023-05-10T13:51:50.006Z,14.90
2023-05-10T13:54:21.291Z,14.60
2023-05-10T13:56:48.671Z,14.90
2023-05-10T13:59:16.099Z,14.70
2023-05-10T14:01:44.485Z,14.60
2023-05-10T14:04:14.038Z,15.00
2023-05-10T14:06:41.915Z,15.30
2023-05-10T14:09:12.378Z,16.00
2023-05-10T14:11:42.944Z,16.00
2023-05-10T14:14:17.103Z,16.50
2023-05-10T14:16:45.575Z,17.20
2023-05-10T14:19:14.121Z,17.20
2023-05-10T14:21:41.672Z,17.80
2023-05-10T14:24:12.233Z,18.20
2023-05-10T14:26:39.471Z,18.30
2023-05-10T14:29:07.466Z,18.70
2023-05-10T14:31:36.492Z,18.70
2023-05-10T14:34:05.390Z,19.30
2023-05-10T14:36:37.623Z,19.50
2023-05-10T14:39:07.409Z,18.80
2023-05-10T14:41:37.321Z,19.00
2023-05-10T14:44:05.217Z,19.00
2023-05-10T14:46:32.488Z,18.90
2023-05-10T14:49:00.464Z,19.00
2023-05-10T14:51:28.444Z,19.00
2023-05-10T14:53:57.396Z,18.80
2023-05-10T14:56:25.280Z,19.00
2023-05-10T14:58:52.905Z,18.90
2023-05-10T15:01:20.917Z,18.90
2023-05-10T15:03:50.733Z,18.90
2023-05-10T15:06:24.167Z,18.80
2023-05-10T15:08:51.808Z,18.60
2023-05-10T15:11:19.188Z,18.30
2023-05-10T15:13:47.259Z,18.20
2023-05-10T15:16:14.748Z,17.80
2023-05-10T15:18:45.053Z,17.20
2023-05-10T15:21:15.263Z,17.20
2023-05-10T15:23:45.648Z,16.60
2023-05-10T15:26:13.204Z,16.50
2023-05-10T15:28:41.243Z,16.40
2023-05-10T15:31:09.389Z,16.30
2023-05-10T15:33:40.015Z,15.90
2023-05-10T15:36:08.598Z,15.60
2023-05-10T15:38:36.146Z,15.70
2023-05-10T15:41:03.828Z,15.70
2023-05-10T15:43:36.024Z,15.50
2023-05-10T15:46:03.974Z,15.70
2023-05-10T15:48:32.473Z,15.40
2023-05-10T15:51:00.087Z,15.70
2023-05-10T15:53:35.498Z,15.50
2023-05-10T15:56:09.829Z,15.40
2023-05-10T15:58:38.694Z,15.30
2023-05-10T16:01:06.244Z,15.00
2023-05-10T16:03:37.286Z,15.00
2023-05-10T16:06:05.018Z,14.60
2023-05-10T16:08:34.251Z,14.00
2023-05-10T16:11:01.792Z,13.50
2023-05-10T16:13:30.662Z,13.20
2023-05-10T16:15:58.767Z,13.10
2023-05-10T16:18:26.162Z,13.20
2023-05-10T16:20:54.296Z,13.10
2023-05-10T16:23:26.807Z,13.10
2023-05-10T16:25:54.694Z,13.00
2023-05-10T16:28:22.308Z,13.20
2023-05-10T16:30:49.762Z,13.30
2023-05-10T16:33:17.280Z,13.10
2023-05-10T16:35:44.904Z,13.30
2023-05-10T16:38:12.315Z,13.20
2023-05-10T16:40:39.785Z,13.30
2023-05-10T16:43:07.915Z,13.30
2023-05-10T16:45:35.488Z,13.50
2023-05-10T16:48:04.321Z,13.30
2023-05-10T16:50:32.237Z,13.30
2023-05-10T16:52:59.779Z,13.20
2023-05-10T16:55:29.421Z,13.20
2023-05-10T16:58:00.126Z,13.20
2023-05-10T17:00:27.901Z,13.30
2023-05-10T17:02:55.666Z,13.40
2023-05-10T17:05:26.444Z,13.40
2023-05-10T17:08:02.187Z,13.60
2023-05-10T17:10:32.602Z,13.50
2023-05-10T17:13:02.815Z,13.40
2023-05-10T17:15:29.885Z,13.30
2023-05-10T17:18:02.770Z,13.30
2023-05-10T17:20:30.392Z,13.30
2023-05-10T17:22:57.585Z,13.50
2023-05-10T17:28:11.466Z,13.50
2023-05-10T17:30:38.932Z,13.50
2023-05-10T17:33:06.619Z,13.20
2023-05-10T17:35:34.464Z,13.60
2023-05-10T17:38:01.707Z,13.30
2023-05-10T17:40:29.576Z,13.20
2023-05-10T17:42:57.072Z,13.40
2023-05-10T17:45:24.244Z,13.00
2023-05-10T17:47:51.850Z,13.50
2023-05-10T17:50:19.091Z,13.20
2023-05-10T17:52:47.065Z,13.50
2023-05-10T17:55:15.146Z,13.60
2023-05-10T17:57:45.903Z,13.70
2023-05-10T18:00:16.403Z,13.60
2023-05-10T18:02:45.641Z,13.60
2023-05-10T18:05:13.383Z,13.70
2023-05-10T18:07:40.985Z,13.50
2023-05-10T18:10:08.573Z,13.50
2023-05-10T18:12:37.873Z,13.30
2023-05-10T18:15:05.743Z,13.20
2023-05-10T18:17:35.150Z,13.00
2023-05-10T18:20:02.818Z,13.10
2023-05-10T18:22:30.008Z,13.00
2023-05-10T18:24:57.911Z,13.00
2023-05-10T18:27:25.313Z,13.20
2023-05-10T18:29:52.978Z,13.10
2023-05-10T18:32:20.550Z,12.90
2023-05-10T18:34:48.409Z,13.20
2023-05-10T18:37:18.738Z,12.60
2023-05-10T18:39:49.513Z,12.70
2023-05-10T18:42:16.721Z,12.30
2023-05-10T18:44:44.175Z,12.30
2023-05-10T18:47:15.122Z,12.40
2023-05-10T18:49:42.148Z,12.40
2023-05-10T18:52:09.874Z,12.30
2023-05-10T18:54:37.094Z,12.10
2023-05-10T18:57:06.938Z,12.30
2023-05-10T18:59:36.853Z,12.00
2023-05-10T19:02:07.758Z,12.20
2023-05-10T19:04:34.997Z,12.00
2023-05-10T19:07:03.342Z,12.10
2023-05-10T19:09:31.119Z,12.00
2023-05-10T19:11:58.985Z,11.80
2023-05-10T19:14:26.515Z,11.80
2023-05-10T19:16:54.753Z,11.90
2023-05-10T19:19:23.938Z,12.00
2023-05-10T19:21:55.672Z,11.90
2023-05-10T19:24:25.868Z,12.10
2023-05-10T19:26:54.906Z,11.80
2023-05-10T19:29:25.502Z,12.10
2023-05-10T19:31:53.900Z,11.90
2023-05-10T19:34:21.551Z,12.30
2023-05-10T19:36:49.144Z,12.10
2023-05-10T19:39:16.421Z,11.90
2023-05-10T19:44:25.905Z,12.30
2023-05-10T19:46:56.847Z,12.10
2023-05-10T19:49:24.033Z,12.00
2023-05-10T19:51:51.323Z,12.10
2023-05-10T19:54:18.499Z,11.90
2023-05-10T19:56:45.946Z,11.90
2023-05-10T19:59:14.154Z,11.70
2023-05-10T20:01:41.601Z,11.70
2023-05-10T20:04:10.372Z,11.80
2023-05-10T20:06:37.765Z,11.70
2023-05-10T20:09:05.211Z,11.70
2023-05-10T20:11:35.656Z,11.60
2023-05-10T20:14:04.850Z,11.50
2023-05-10T20:16:32.553Z,11.40
2023-05-10T20:19:00.174Z,11.60
2023-05-10T20:21:27.369Z,11.40
2023-05-10T20:23:54.706Z,11.30
2023-05-10T20:26:22.094Z,11.50
2023-05-10T20:28:55.293Z,11.40
2023-05-10T20:31:30.452Z,11.50
2023-05-10T20:34:05.768Z,11.50
2023-05-10T20:36:34.933Z,11.70
2023-05-10T20:39:02.708Z,11.40
2023-05-10T20:41:30.307Z,11.50
2023-05-10T20:43:57.718Z,11.50
2023-05-10T20:46:27.303Z,11.50
2023-05-10T20:48:54.882Z,11.60
2023-05-10T20:51:25.242Z,11.40
2023-05-10T20:53:52.348Z,11.40
2023-05-10T20:56:19.891Z,11.50
2023-05-10T20:58:47.288Z,11.10
2023-05-10T21:01:17.478Z,11.10
2023-05-10T21:03:47.543Z,11.10
2023-05-10T21:06:17.524Z,11.50
2023-05-10T21:08:44.885Z,11.30
2023-05-10T21:11:12.007Z,11.40
2023-05-10T21:13:39.329Z,11.10
2023-05-10T21:16:09.684Z,11.30
2023-05-10T21:18:37.763Z,11.40
2023-05-10T21:21:05.624Z,11.50
2023-05-10T21:23:34.541Z,11.10
2023-05-10T21:26:03.753Z,11.10
2023-05-10T21:28:31.029Z,11.30
2023-05-10T21:30:58.877Z,10.80
2023-05-10T21:33:33.849Z,11.10
2023-05-10T21:36:10.168Z,11.00
2023-05-10T21:38:37.500Z,11.40
2023-05-10T21:41:08.470Z,11.20
2023-05-10T21:43:39.110Z,11.40
2023-05-10T21:46:07.854Z,11.40
2023-05-10T21:48:35.504Z,11.40
2023-05-10T21:51:03.040Z,11.20
2023-05-10T21:53:30.447Z,11.50
2023-05-10T21:55:57.666Z,11.30
2023-05-10T21:58:25.140Z,11.50
2023-05-10T22:00:52.610Z,11.20
2023-05-10T22:03:20.216Z,11.20
2023-05-10T22:05:47.753Z,11.20
2023-05-10T22:08:15.111Z,11.30
2023-05-10T22:10:42.238Z,11.50
2023-05-10T22:13:12.340Z,11.30
2023-05-10T22:15:40.267Z,11.40
2023-05-10T22:18:07.761Z,11.10
2023-05-10T22:20:35.366Z,11.10
2023-05-10T22:23:02.821Z,11.50
2023-05-10T22:25:30.890Z,11.30
2023-05-10T22:27:58.159Z,11.00
2023-05-10T22:30:25.983Z,11.10
2023-05-10T22:32:53.761Z,11.10
2023-05-10T22:35:27.408Z,11.10
2023-05-10T22:37:55.421Z,11.40
2023-05-10T22:40:26.047Z,11.50
2023-05-10T22:42:53.569Z,11.50
2023-05-10T22:45:21.052Z,11.40
2023-05-10T22:47:48.225Z,11.60
2023-05-10T22:50:16.764Z,11.60
2023-05-10T22:52:44.690Z,11.10
2023-05-10T22:55:12.319Z,11.30
2023-05-10T22:57:39.896Z,11.30
2023-05-10T23:00:08.043Z,11.30
2023-05-10T23:02:35.717Z,11.10
2023-05-10T23:05:03.036Z,11.00
2023-05-10T23:07:30.897Z,11.40
2023-05-10T23:09:58.482Z,11.00
2023-05-10T23:12:27.297Z,11.40
2023-05-10T23:14:55.031Z,11.20
2023-05-10T23:17:22.286Z,11.40
2023-05-10T23:19:49.586Z,11.00
2023-05-10T23:22:17.302Z,11.10
2023-05-10T23:24:44.630Z,11.10
2023-05-10T23:27:13.685Z,11.30
2023-05-10T23:29:41.825Z,11.40
2023-05-10T23:32:09.454Z,11.00
2023-05-10T23:34:37.001Z,11.00
2023-05-10T23:37:04.214Z,11.00
2023-05-10T23:39:31.662Z,11.10
2023-05-10T23:41:58.761Z,11.00
2023-05-10T23:44:26.820Z,11.00
2023-05-10T23:46:54.500Z,11.00
2023-05-10T23:49:21.938Z,11.40
2023-05-10T23:51:49.303Z,11.30
2023-05-10T23:54:20.134Z,11.10
2023-05-10T23:56:47.369Z,11.20
2023-05-10T23:59:15.005Z,11.20
